sensor_id;sensor_type;location;lat;lon;timestamp;temperature;humidity
2751;DHT22;1383;48.362;10.908;2024-01-07T00:01:20;3.90;93.20
2751;DHT22;1383;48.362;10.908;2024-01-07T00:03:47;3.90;93.20
2751;DHT22;1383;48.362;10.908;2024-01-07T00:06:14;4.00;93.70
2751;DHT22;1383;48.362;10.908;2024-01-07T00:08:41;4.00;93.40
2751;DHT22;1383;48.362;10.908;2024-01-07T00:11:08;4.00;93.40
2751;DHT22;1383;48.362;10.908;2024-01-07T00:13:35;4.00;93.50
2751;DHT22;1383;48.362;10.908;2024-01-07T00:16:02;4.10;93.60
2751;DHT22;1383;48.362;10.908;2024-01-07T00:18:29;4.00;93.60
2751;DHT22;1383;48.362;10.908;2024-01-07T00:20:56;4.00;93.60
2751;DHT22;1383;48.362;10.908;2024-01-07T00:23:23;4.00;93.70
2751;DHT22;1383;48.362;10.908;2024-01-07T00:25:50;4.00;93.80
2751;DHT22;1383;48.362;10.908;2024-01-07T00:28:17;4.00;93.70
2751;DHT22;1383;48.362;10.908;2024-01-07T00:30:44;4.00;93.60
2751;DHT22;1383;48.362;10.908;2024-01-07T00:33:11;4.00;93.60
2751;DHT22;1383;48.362;10.908;2024-01-07T00:35:38;4.00;93.70
2751;DHT22;1383;48.362;10.908;2024-01-07T00:38:05;4.00;93.80
2751;DHT22;1383;48.362;10.908;2024-01-07T00:40:32;3.90;93.90
2751;DHT22;1383;48.362;10.908;2024-01-07T00:42:59;4.00;94.00
2751;DHT22;1383;48.362;10.908;2024-01-07T00:45:25;3.90;93.90
2751;DHT22;1383;48.362;10.908;2024-01-07T00:47:52;3.90;93.90
2751;DHT22;1383;48.362;10.908;2024-01-07T00:50:22;3.80;93.90
2751;DHT22;1383;48.362;10.908;2024-01-07T00:52:49;3.80;94.10
2751;DHT22;1383;48.362;10.908;2024-01-07T00:55:16;3.80;94.40
2751;DHT22;1383;48.362;10.908;2024-01-07T00:57:43;3.80;94.60
2751;DHT22;1383;48.362;10.908;2024-01-07T01:00:10;3.90;94.70
2751;DHT22;1383;48.362;10.908;2024-01-07T01:02:37;3.90;94.90
2751;DHT22;1383;48.362;10.908;2024-01-07T01:05:04;3.80;94.70
2751;DHT22;1383;48.362;10.908;2024-01-07T01:07:31;3.80;94.80
2751;DHT22;1383;48.362;10.908;2024-01-07T01:09:58;3.80;94.70
2751;DHT22;1383;48.362;10.908;2024-01-07T01:12:25;3.80;94.80
2751;DHT22;1383;48.362;10.908;2024-01-07T01:14:52;3.70;94.70
2751;DHT22;1383;48.362;10.908;2024-01-07T01:17:19;3.70;94.80
2751;DHT22;1383;48.362;10.908;2024-01-07T01:19:46;3.70;94.90
2751;DHT22;1383;48.362;10.908;2024-01-07T01:22:13;3.70;95.10
2751;DHT22;1383;48.362;10.908;2024-01-07T01:24:40;3.80;95.30
2751;DHT22;1383;48.362;10.908;2024-01-07T01:27:07;3.70;95.30
2751;DHT22;1383;48.362;10.908;2024-01-07T01:29:34;3.60;95.40
2751;DHT22;1383;48.362;10.908;2024-01-07T01:32:01;3.60;95.50
2751;DHT22;1383;48.362;10.908;2024-01-07T01:34:27;3.50;95.60
2751;DHT22;1383;48.362;10.908;2024-01-07T01:36:54;3.40;95.90
2751;DHT22;1383;48.362;10.908;2024-01-07T01:39:21;3.40;96.00
2751;DHT22;1383;48.362;10.908;2024-01-07T01:41:48;3.30;96.10
2751;DHT22;1383;48.362;10.908;2024-01-07T01:44:15;3.30;96.20
2751;DHT22;1383;48.362;10.908;2024-01-07T01:46:42;3.30;96.40
2751;DHT22;1383;48.362;10.908;2024-01-07T01:49:11;3.30;96.50
2751;DHT22;1383;48.362;10.908;2024-01-07T01:51:39;3.30;96.70
2751;DHT22;1383;48.362;10.908;2024-01-07T01:54:06;3.30;96.80
2751;DHT22;1383;48.362;10.908;2024-01-07T01:56:33;3.30;96.90
2751;DHT22;1383;48.362;10.908;2024-01-07T01:59:00;3.30;97.00
2751;DHT22;1383;48.362;10.908;2024-01-07T02:01:27;3.30;97.10
2751;DHT22;1383;48.362;10.908;2024-01-07T02:03:55;3.30;97.20
2751;DHT22;1383;48.362;10.908;2024-01-07T02:06:22;3.30;97.20
2751;DHT22;1383;48.362;10.908;2024-01-07T02:08:50;3.30;97.30
2751;DHT22;1383;48.362;10.908;2024-01-07T02:11:19;3.30;97.30
2751;DHT22;1383;48.362;10.908;2024-01-07T02:13:46;3.30;97.70
2751;DHT22;1383;48.362;10.908;2024-01-07T02:16:14;3.40;97.80
2751;DHT22;1383;48.362;10.908;2024-01-07T02:18:42;3.40;97.70
2751;DHT22;1383;48.362;10.908;2024-01-07T02:21:10;3.40;97.80
2751;DHT22;1383;48.362;10.908;2024-01-07T02:23:37;3.40;97.90
2751;DHT22;1383;48.362;10.908;2024-01-07T02:26:04;3.40;98.00
2751;DHT22;1383;48.362;10.908;2024-01-07T02:28:33;3.50;98.10
2751;DHT22;1383;48.362;10.908;2024-01-07T02:31:00;3.40;98.10
2751;DHT22;1383;48.362;10.908;2024-01-07T02:33:27;3.50;98.20
2751;DHT22;1383;48.362;10.908;2024-01-07T02:35:56;3.50;98.20
2751;DHT22;1383;48.362;10.908;2024-01-07T02:38:23;3.50;98.10
2751;DHT22;1383;48.362;10.908;2024-01-07T02:40:50;3.40;98.00
2751;DHT22;1383;48.362;10.908;2024-01-07T02:43:16;3.40;97.90
2751;DHT22;1383;48.362;10.908;2024-01-07T02:45:43;3.40;97.90
2751;DHT22;1383;48.362;10.908;2024-01-07T02:48:10;3.40;97.80
2751;DHT22;1383;48.362;10.908;2024-01-07T02:50:37;3.40;97.80
2751;DHT22;1383;48.362;10.908;2024-01-07T02:53:04;3.50;98.00
2751;DHT22;1383;48.362;10.908;2024-01-07T02:55:31;3.40;97.90
2751;DHT22;1383;48.362;10.908;2024-01-07T02:57:58;3.50;98.00
2751;DHT22;1383;48.362;10.908;2024-01-07T03:00:25;3.50;98.10
2751;DHT22;1383;48.362;10.908;2024-01-07T03:02:51;3.40;98.00
2751;DHT22;1383;48.362;10.908;2024-01-07T03:05:19;3.50;98.20
2751;DHT22;1383;48.362;10.908;2024-01-07T03:07:46;3.40;98.20
2751;DHT22;1383;48.362;10.908;2024-01-07T03:10:13;3.40;98.20
2751;DHT22;1383;48.362;10.908;2024-01-07T03:12:40;3.40;98.40
2751;DHT22;1383;48.362;10.908;2024-01-07T03:15:08;3.40;98.50
2751;DHT22;1383;48.362;10.908;2024-01-07T03:17:35;3.40;98.90
2751;DHT22;1383;48.362;10.908;2024-01-07T03:20:03;3.40;98.60
2751;DHT22;1383;48.362;10.908;2024-01-07T03:22:29;3.40;98.70
2751;DHT22;1383;48.362;10.908;2024-01-07T03:24:56;3.40;98.80
2751;DHT22;1383;48.362;10.908;2024-01-07T03:27:23;3.50;99.00
2751;DHT22;1383;48.362;10.908;2024-01-07T03:29:50;3.50;99.00
2751;DHT22;1383;48.362;10.908;2024-01-07T03:32:17;3.50;98.90
2751;DHT22;1383;48.362;10.908;2024-01-07T03:34:44;3.40;99.10
2751;DHT22;1383;48.362;10.908;2024-01-07T03:37:11;3.30;98.80
2751;DHT22;1383;48.362;10.908;2024-01-07T03:39:38;3.30;98.80
2751;DHT22;1383;48.362;10.908;2024-01-07T03:42:05;3.30;99.00
2751;DHT22;1383;48.362;10.908;2024-01-07T03:44:38;3.30;98.90
2751;DHT22;1383;48.362;10.908;2024-01-07T03:47:08;3.30;98.90
2751;DHT22;1383;48.362;10.908;2024-01-07T03:49:38;3.30;99.00
2751;DHT22;1383;48.362;10.908;2024-01-07T03:52:08;3.40;99.10
2751;DHT22;1383;48.362;10.908;2024-01-07T03:54:35;3.30;98.90
2751;DHT22;1383;48.362;10.908;2024-01-07T03:57:02;3.20;98.70
2751;DHT22;1383;48.362;10.908;2024-01-07T03:59:29;3.20;98.80
2751;DHT22;1383;48.362;10.908;2024-01-07T04:01:56;3.30;98.80
2751;DHT22;1383;48.362;10.908;2024-01-07T04:04:23;3.20;98.90
2751;DHT22;1383;48.362;10.908;2024-01-07T04:06:50;3.20;98.70
2751;DHT22;1383;48.362;10.908;2024-01-07T04:09:17;3.00;98.50
2751;DHT22;1383;48.362;10.908;2024-01-07T04:11:44;3.10;98.70
2751;DHT22;1383;48.362;10.908;2024-01-07T04:14:14;3.10;98.90
2751;DHT22;1383;48.362;10.908;2024-01-07T04:16:41;3.10;98.90
2751;DHT22;1383;48.362;10.908;2024-01-07T04:19:07;3.20;99.00
2751;DHT22;1383;48.362;10.908;2024-01-07T04:21:35;3.10;98.80
2751;DHT22;1383;48.362;10.908;2024-01-07T04:24:02;3.10;98.80
2751;DHT22;1383;48.362;10.908;2024-01-07T04:26:29;3.20;98.70
2751;DHT22;1383;48.362;10.908;2024-01-07T04:28:56;3.10;98.70
2751;DHT22;1383;48.362;10.908;2024-01-07T04:31:23;3.10;98.80
2751;DHT22;1383;48.362;10.908;2024-01-07T04:33:50;3.20;98.80
2751;DHT22;1383;48.362;10.908;2024-01-07T04:36:17;3.10;98.70
2751;DHT22;1383;48.362;10.908;2024-01-07T04:38:44;3.10;98.60
2751;DHT22;1383;48.362;10.908;2024-01-07T04:41:11;3.10;98.60
2751;DHT22;1383;48.362;10.908;2024-01-07T04:43:38;3.10;98.60
2751;DHT22;1383;48.362;10.908;2024-01-07T04:46:05;3.10;98.70
2751;DHT22;1383;48.362;10.908;2024-01-07T04:48:32;3.10;98.70
2751;DHT22;1383;48.362;10.908;2024-01-07T04:50:59;3.10;98.70
2751;DHT22;1383;48.362;10.908;2024-01-07T04:53:26;3.10;98.60
2751;DHT22;1383;48.362;10.908;2024-01-07T04:55:53;3.10;98.80
2751;DHT22;1383;48.362;10.908;2024-01-07T04:58:20;3.10;98.80
2751;DHT22;1383;48.362;10.908;2024-01-07T05:00:47;3.00;98.80
2751;DHT22;1383;48.362;10.908;2024-01-07T05:03:14;3.00;98.80
2751;DHT22;1383;48.362;10.908;2024-01-07T05:05:41;3.00;98.90
2751;DHT22;1383;48.362;10.908;2024-01-07T05:08:07;3.00;98.90
2751;DHT22;1383;48.362;10.908;2024-01-07T05:10:34;3.00;98.90
2751;DHT22;1383;48.362;10.908;2024-01-07T05:13:01;3.00;99.00
2751;DHT22;1383;48.362;10.908;2024-01-07T05:15:33;2.90;98.90
2751;DHT22;1383;48.362;10.908;2024-01-07T05:18:00;2.90;99.00
2751;DHT22;1383;48.362;10.908;2024-01-07T05:20:27;3.00;99.00
2751;DHT22;1383;48.362;10.908;2024-01-07T05:22:54;3.00;99.10
2751;DHT22;1383;48.362;10.908;2024-01-07T05:25:21;3.00;99.10
2751;DHT22;1383;48.362;10.908;2024-01-07T05:27:48;3.00;99.10
2751;DHT22;1383;48.362;10.908;2024-01-07T05:30:15;3.00;99.40
2751;DHT22;1383;48.362;10.908;2024-01-07T05:32:42;3.00;99.10
2751;DHT22;1383;48.362;10.908;2024-01-07T05:35:10;3.00;98.90
2751;DHT22;1383;48.362;10.908;2024-01-07T05:37:37;3.00;99.00
2751;DHT22;1383;48.362;10.908;2024-01-07T05:40:04;3.00;99.00
2751;DHT22;1383;48.362;10.908;2024-01-07T05:42:33;3.00;99.10
2751;DHT22;1383;48.362;10.908;2024-01-07T05:45:00;2.90;99.10
2751;DHT22;1383;48.362;10.908;2024-01-07T05:47:27;2.90;99.20
2751;DHT22;1383;48.362;10.908;2024-01-07T05:49:54;2.90;99.20
2751;DHT22;1383;48.362;10.908;2024-01-07T05:52:21;2.90;99.20
2751;DHT22;1383;48.362;10.908;2024-01-07T05:54:48;2.90;99.30
2751;DHT22;1383;48.362;10.908;2024-01-07T05:57:15;2.80;99.20
2751;DHT22;1383;48.362;10.908;2024-01-07T05:59:43;2.90;99.30
2751;DHT22;1383;48.362;10.908;2024-01-07T06:02:12;2.80;99.30
2751;DHT22;1383;48.362;10.908;2024-01-07T06:04:39;2.80;99.30
2751;DHT22;1383;48.362;10.908;2024-01-07T06:07:06;2.80;99.20
2751;DHT22;1383;48.362;10.908;2024-01-07T06:09:33;2.70;99.20
2751;DHT22;1383;48.362;10.908;2024-01-07T06:12:00;2.70;99.30
2751;DHT22;1383;48.362;10.908;2024-01-07T06:14:27;2.60;99.30
2751;DHT22;1383;48.362;10.908;2024-01-07T06:16:54;2.60;99.40
2751;DHT22;1383;48.362;10.908;2024-01-07T06:19:21;2.70;99.60
2751;DHT22;1383;48.362;10.908;2024-01-07T06:21:48;2.70;99.60
2751;DHT22;1383;48.362;10.908;2024-01-07T06:24:15;2.60;99.50
2751;DHT22;1383;48.362;10.908;2024-01-07T06:26:42;2.50;99.50
2751;DHT22;1383;48.362;10.908;2024-01-07T06:29:09;2.60;99.70
2751;DHT22;1383;48.362;10.908;2024-01-07T06:31:42;2.60;99.80
2751;DHT22;1383;48.362;10.908;2024-01-07T06:34:09;2.60;99.80
2751;DHT22;1383;48.362;10.908;2024-01-07T06:36:40;2.60;99.80
2751;DHT22;1383;48.362;10.908;2024-01-07T06:39:10;2.50;99.80
2751;DHT22;1383;48.362;10.908;2024-01-07T06:41:37;2.50;99.80
2751;DHT22;1383;48.362;10.908;2024-01-07T06:44:04;2.50;99.90
2751;DHT22;1383;48.362;10.908;2024-01-07T06:46:31;2.50;99.90
2751;DHT22;1383;48.362;10.908;2024-01-07T06:49:00;2.40;99.80
2751;DHT22;1383;48.362;10.908;2024-01-07T06:51:28;2.40;99.90
2751;DHT22;1383;48.362;10.908;2024-01-07T06:53:55;2.30;99.90
2751;DHT22;1383;48.362;10.908;2024-01-07T06:56:22;2.30;99.90
2751;DHT22;1383;48.362;10.908;2024-01-07T06:58:51;2.30;99.90
2751;DHT22;1383;48.362;10.908;2024-01-07T07:01:21;2.20;99.90
2751;DHT22;1383;48.362;10.908;2024-01-07T07:03:50;2.20;99.90
2751;DHT22;1383;48.362;10.908;2024-01-07T07:06:17;2.20;99.90
2751;DHT22;1383;48.362;10.908;2024-01-07T07:08:44;2.20;99.90
2751;DHT22;1383;48.362;10.908;2024-01-07T07:11:12;2.20;99.90
2751;DHT22;1383;48.362;10.908;2024-01-07T07:13:38;2.20;99.90
2751;DHT22;1383;48.362;10.908;2024-01-07T07:16:06;2.30;99.90
2751;DHT22;1383;48.362;10.908;2024-01-07T07:18:33;2.30;99.90
2751;DHT22;1383;48.362;10.908;2024-01-07T07:21:00;2.30;99.90
2751;DHT22;1383;48.362;10.908;2024-01-07T07:23:27;2.30;99.90
2751;DHT22;1383;48.362;10.908;2024-01-07T07:25:54;2.30;99.90
2751;DHT22;1383;48.362;10.908;2024-01-07T07:28:20;2.30;99.90
2751;DHT22;1383;48.362;10.908;2024-01-07T07:30:47;2.30;99.90
2751;DHT22;1383;48.362;10.908;2024-01-07T07:33:18;2.30;99.90
2751;DHT22;1383;48.362;10.908;2024-01-07T07:35:45;2.30;99.90
2751;DHT22;1383;48.362;10.908;2024-01-07T07:38:12;2.30;99.90
2751;DHT22;1383;48.362;10.908;2024-01-07T07:40:40;2.30;99.90
2751;DHT22;1383;48.362;10.908;2024-01-07T07:43:06;2.30;99.90
2751;DHT22;1383;48.362;10.908;2024-01-07T07:45:34;2.30;99.90
2751;DHT22;1383;48.362;10.908;2024-01-07T07:48:01;2.30;99.90
2751;DHT22;1383;48.362;10.908;2024-01-07T07:50:28;2.30;99.90
2751;DHT22;1383;48.362;10.908;2024-01-07T07:52:55;2.30;99.90
2751;DHT22;1383;48.362;10.908;2024-01-07T07:55:22;2.30;99.90
2751;DHT22;1383;48.362;10.908;2024-01-07T07:57:49;2.40;99.90
2751;DHT22;1383;48.362;10.908;2024-01-07T08:00:18;2.40;99.90
2751;DHT22;1383;48.362;10.908;2024-01-07T08:02:45;2.40;99.90
2751;DHT22;1383;48.362;10.908;2024-01-07T08:05:12;2.40;99.90
2751;DHT22;1383;48.362;10.908;2024-01-07T08:07:40;2.40;99.90
2751;DHT22;1383;48.362;10.908;2024-01-07T08:10:08;2.40;99.90
2751;DHT22;1383;48.362;10.908;2024-01-07T08:12:35;2.40;99.90
2751;DHT22;1383;48.362;10.908;2024-01-07T08:15:02;2.40;99.90
2751;DHT22;1383;48.362;10.908;2024-01-07T08:17:29;2.40;99.90
2751;DHT22;1383;48.362;10.908;2024-01-07T08:19:56;2.30;99.90
2751;DHT22;1383;48.362;10.908;2024-01-07T08:22:23;2.20;99.90
2751;DHT22;1383;48.362;10.908;2024-01-07T08:24:50;2.30;99.90
2751;DHT22;1383;48.362;10.908;2024-01-07T08:27:17;2.30;99.90
2751;DHT22;1383;48.362;10.908;2024-01-07T08:29:44;2.30;99.90
2751;DHT22;1383;48.362;10.908;2024-01-07T08:32:12;2.40;99.90
2751;DHT22;1383;48.362;10.908;2024-01-07T08:34:39;2.30;99.90
2751;DHT22;1383;48.362;10.908;2024-01-07T08:37:09;2.40;99.90
2751;DHT22;1383;48.362;10.908;2024-01-07T08:39:37;2.30;99.90
2751;DHT22;1383;48.362;10.908;2024-01-07T08:42:04;2.30;99.90
2751;DHT22;1383;48.362;10.908;2024-01-07T08:44:31;2.40;99.90
2751;DHT22;1383;48.362;10.908;2024-01-07T08:46:58;2.40;99.90
2751;DHT22;1383;48.362;10.908;2024-01-07T08:49:30;2.30;99.90
2751;DHT22;1383;48.362;10.908;2024-01-07T08:52:00;2.30;99.80
2751;DHT22;1383;48.362;10.908;2024-01-07T08:54:27;2.30;99.70
2751;DHT22;1383;48.362;10.908;2024-01-07T08:56:54;2.30;99.80
2751;DHT22;1383;48.362;10.908;2024-01-07T08:59:21;2.20;99.70
2751;DHT22;1383;48.362;10.908;2024-01-07T09:01:47;2.20;99.80
2751;DHT22;1383;48.362;10.908;2024-01-07T09:04:15;2.20;99.80
2751;DHT22;1383;48.362;10.908;2024-01-07T09:06:44;2.20;99.90
2751;DHT22;1383;48.362;10.908;2024-01-07T09:09:11;2.20;99.90
2751;DHT22;1383;48.362;10.908;2024-01-07T09:11:38;2.10;99.80
2751;DHT22;1383;48.362;10.908;2024-01-07T09:14:05;2.10;99.90
2751;DHT22;1383;48.362;10.908;2024-01-07T09:16:32;2.10;99.90
2751;DHT22;1383;48.362;10.908;2024-01-07T09:18:59;2.10;99.90
2751;DHT22;1383;48.362;10.908;2024-01-07T09:21:26;2.10;99.90
2751;DHT22;1383;48.362;10.908;2024-01-07T09:23:53;2.20;99.90
2751;DHT22;1383;48.362;10.908;2024-01-07T09:26:20;2.20;99.90
2751;DHT22;1383;48.362;10.908;2024-01-07T09:28:47;2.20;99.90
2751;DHT22;1383;48.362;10.908;2024-01-07T09:31:14;2.20;99.70
2751;DHT22;1383;48.362;10.908;2024-01-07T09:33:42;2.10;99.70
2751;DHT22;1383;48.362;10.908;2024-01-07T09:36:09;2.10;99.70
2751;DHT22;1383;48.362;10.908;2024-01-07T09:38:54;2.10;99.60
2751;DHT22;1383;48.362;10.908;2024-01-07T09:41:21;2.10;99.60
2751;DHT22;1383;48.362;10.908;2024-01-07T09:43:48;2.00;99.50
2751;DHT22;1383;48.362;10.908;2024-01-07T09:46:16;2.10;99.60
2751;DHT22;1383;48.362;10.908;2024-01-07T09:48:43;2.10;99.60
2751;DHT22;1383;48.362;10.908;2024-01-07T09:51:10;2.10;99.50
2751;DHT22;1383;48.362;10.908;2024-01-07T09:53:39;2.10;99.40
2751;DHT22;1383;48.362;10.908;2024-01-07T09:56:20;2.10;99.20
2751;DHT22;1383;48.362;10.908;2024-01-07T09:58:49;2.00;99.10
2751;DHT22;1383;48.362;10.908;2024-01-07T10:01:19;2.00;99.30
2751;DHT22;1383;48.362;10.908;2024-01-07T10:03:47;2.00;99.50
2751;DHT22;1383;48.362;10.908;2024-01-07T10:06:18;2.00;99.20
2751;DHT22;1383;48.362;10.908;2024-01-07T10:08:45;2.00;99.30
2751;DHT22;1383;48.362;10.908;2024-01-07T10:11:14;2.00;99.20
2751;DHT22;1383;48.362;10.908;2024-01-07T10:13:41;2.00;99.20
2751;DHT22;1383;48.362;10.908;2024-01-07T10:16:08;2.00;99.20
2751;DHT22;1383;48.362;10.908;2024-01-07T10:18:36;2.00;99.20
2751;DHT22;1383;48.362;10.908;2024-01-07T10:21:03;1.90;99.20
2751;DHT22;1383;48.362;10.908;2024-01-07T10:23:30;2.00;99.40
2751;DHT22;1383;48.362;10.908;2024-01-07T10:26:00;2.10;99.40
2751;DHT22;1383;48.362;10.908;2024-01-07T10:28:37;2.10;99.30
2751;DHT22;1383;48.362;10.908;2024-01-07T10:31:04;2.00;99.10
2751;DHT22;1383;48.362;10.908;2024-01-07T10:33:31;2.00;99.00
2751;DHT22;1383;48.362;10.908;2024-01-07T10:36:04;1.90;98.90
2751;DHT22;1383;48.362;10.908;2024-01-07T10:38:32;1.90;98.80
2751;DHT22;1383;48.362;10.908;2024-01-07T10:41:00;1.90;98.70
2751;DHT22;1383;48.362;10.908;2024-01-07T10:43:29;1.90;98.70
2751;DHT22;1383;48.362;10.908;2024-01-07T10:46:00;1.80;98.70
2751;DHT22;1383;48.362;10.908;2024-01-07T10:48:31;1.80;98.90
2751;DHT22;1383;48.362;10.908;2024-01-07T10:51:02;1.80;98.90
2751;DHT22;1383;48.362;10.908;2024-01-07T10:53:34;1.70;98.90
2751;DHT22;1383;48.362;10.908;2024-01-07T10:56:05;1.70;99.10
2751;DHT22;1383;48.362;10.908;2024-01-07T10:58:36;1.80;99.30
2751;DHT22;1383;48.362;10.908;2024-01-07T11:01:05;1.80;99.40
2751;DHT22;1383;48.362;10.908;2024-01-07T11:03:40;1.90;99.50
2751;DHT22;1383;48.362;10.908;2024-01-07T11:08:59;1.80;99.20
2751;DHT22;1383;48.362;10.908;2024-01-07T11:11:38;1.80;99.20
2751;DHT22;1383;48.362;10.908;2024-01-07T11:14:42;1.70;99.10
2751;DHT22;1383;48.362;10.908;2024-01-07T11:17:44;1.80;99.10
2751;DHT22;1383;48.362;10.908;2024-01-07T11:20:21;1.80;98.90
2751;DHT22;1383;48.362;10.908;2024-01-07T11:22:48;1.80;98.90
2751;DHT22;1383;48.362;10.908;2024-01-07T11:25:32;1.70;98.70
2751;DHT22;1383;48.362;10.908;2024-01-07T11:28:01;1.70;98.70
2751;DHT22;1383;48.362;10.908;2024-01-07T11:30:28;1.60;98.60
2751;DHT22;1383;48.362;10.908;2024-01-07T11:32:57;1.50;98.60
2751;DHT22;1383;48.362;10.908;2024-01-07T11:35:56;1.60;98.90
2751;DHT22;1383;48.362;10.908;2024-01-07T11:38:23;1.60;98.90
2751;DHT22;1383;48.362;10.908;2024-01-07T11:40:50;1.60;99.00
2751;DHT22;1383;48.362;10.908;2024-01-07T11:43:18;1.50;99.00
2751;DHT22;1383;48.362;10.908;2024-01-07T11:45:45;1.40;98.90
2751;DHT22;1383;48.362;10.908;2024-01-07T11:48:15;1.30;99.00
2751;DHT22;1383;48.362;10.908;2024-01-07T11:50:43;1.40;99.10
2751;DHT22;1383;48.362;10.908;2024-01-07T11:53:14;1.40;99.30
2751;DHT22;1383;48.362;10.908;2024-01-07T11:55:41;1.30;99.20
2751;DHT22;1383;48.362;10.908;2024-01-07T11:58:08;1.30;99.30
2751;DHT22;1383;48.362;10.908;2024-01-07T12:00:35;1.30;99.30
2751;DHT22;1383;48.362;10.908;2024-01-07T12:03:03;1.30;99.40
2751;DHT22;1383;48.362;10.908;2024-01-07T12:05:30;1.30;99.40
2751;DHT22;1383;48.362;10.908;2024-01-07T12:07:57;1.30;99.50
2751;DHT22;1383;48.362;10.908;2024-01-07T12:10:26;1.30;99.60
2751;DHT22;1383;48.362;10.908;2024-01-07T12:12:53;1.20;99.60
2751;DHT22;1383;48.362;10.908;2024-01-07T12:15:21;1.20;99.60
2751;DHT22;1383;48.362;10.908;2024-01-07T12:17:59;1.20;99.70
2751;DHT22;1383;48.362;10.908;2024-01-07T12:20:29;1.20;99.70
2751;DHT22;1383;48.362;10.908;2024-01-07T12:22:56;1.20;99.60
2751;DHT22;1383;48.362;10.908;2024-01-07T12:25:24;1.20;99.60
2751;DHT22;1383;48.362;10.908;2024-01-07T12:27:51;1.20;99.60
2751;DHT22;1383;48.362;10.908;2024-01-07T12:30:20;1.20;99.60
2751;DHT22;1383;48.362;10.908;2024-01-07T12:32:47;1.10;99.50
2751;DHT22;1383;48.362;10.908;2024-01-07T12:35:15;1.10;99.50
2751;DHT22;1383;48.362;10.908;2024-01-07T12:37:43;1.00;99.40
2751;DHT22;1383;48.362;10.908;2024-01-07T12:40:11;1.00;99.40
2751;DHT22;1383;48.362;10.908;2024-01-07T12:42:39;0.90;99.40
2751;DHT22;1383;48.362;10.908;2024-01-07T12:45:16;0.90;99.50
2751;DHT22;1383;48.362;10.908;2024-01-07T12:47:43;1.00;99.50
2751;DHT22;1383;48.362;10.908;2024-01-07T12:50:11;1.00;99.50
2751;DHT22;1383;48.362;10.908;2024-01-07T12:52:39;1.00;99.60
2751;DHT22;1383;48.362;10.908;2024-01-07T12:55:07;1.00;99.50
2751;DHT22;1383;48.362;10.908;2024-01-07T12:57:34;1.00;99.50
2751;DHT22;1383;48.362;10.908;2024-01-07T13:00:03;1.00;99.40
2751;DHT22;1383;48.362;10.908;2024-01-07T13:02:33;1.00;99.50
2751;DHT22;1383;48.362;10.908;2024-01-07T13:05:01;0.90;99.40
2751;DHT22;1383;48.362;10.908;2024-01-07T13:07:30;0.90;99.40
2751;DHT22;1383;48.362;10.908;2024-01-07T13:09:56;0.90;99.40
2751;DHT22;1383;48.362;10.908;2024-01-07T13:12:23;1.00;99.50
2751;DHT22;1383;48.362;10.908;2024-01-07T13:15:05;0.90;99.40
2751;DHT22;1383;48.362;10.908;2024-01-07T13:17:33;1.00;99.60
2751;DHT22;1383;48.362;10.908;2024-01-07T13:20:00;1.00;99.50
2751;DHT22;1383;48.362;10.908;2024-01-07T13:22:27;1.00;99.50
2751;DHT22;1383;48.362;10.908;2024-01-07T13:24:54;1.00;99.50
2751;DHT22;1383;48.362;10.908;2024-01-07T13:27:21;1.10;99.60
2751;DHT22;1383;48.362;10.908;2024-01-07T13:29:50;1.00;99.50
2751;DHT22;1383;48.362;10.908;2024-01-07T13:32:17;1.00;99.40
2751;DHT22;1383;48.362;10.908;2024-01-07T13:34:45;1.00;99.50
2751;DHT22;1383;48.362;10.908;2024-01-07T13:37:12;0.90;99.40
2751;DHT22;1383;48.362;10.908;2024-01-07T13:39:39;0.90;99.40
2751;DHT22;1383;48.362;10.908;2024-01-07T13:42:06;0.80;99.30
2751;DHT22;1383;48.362;10.908;2024-01-07T13:44:33;0.80;99.60
2751;DHT22;1383;48.362;10.908;2024-01-07T13:47:01;0.80;99.40
2751;DHT22;1383;48.362;10.908;2024-01-07T13:49:28;0.80;99.40
2751;DHT22;1383;48.362;10.908;2024-01-07T13:51:55;0.80;99.40
2751;DHT22;1383;48.362;10.908;2024-01-07T13:54:22;0.80;99.40
2751;DHT22;1383;48.362;10.908;2024-01-07T13:56:55;0.70;99.30
2751;DHT22;1383;48.362;10.908;2024-01-07T13:59:25;0.70;99.20
2751;DHT22;1383;48.362;10.908;2024-01-07T14:01:53;0.70;99.30
2751;DHT22;1383;48.362;10.908;2024-01-07T14:04:20;0.70;99.20
2751;DHT22;1383;48.362;10.908;2024-01-07T14:06:47;0.70;99.10
2751;DHT22;1383;48.362;10.908;2024-01-07T14:09:14;0.70;99.20
2751;DHT22;1383;48.362;10.908;2024-01-07T14:11:41;0.70;99.20
2751;DHT22;1383;48.362;10.908;2024-01-07T14:14:08;0.70;99.20
2751;DHT22;1383;48.362;10.908;2024-01-07T14:16:34;0.80;99.20
2751;DHT22;1383;48.362;10.908;2024-01-07T14:19:01;0.70;99.10
2751;DHT22;1383;48.362;10.908;2024-01-07T14:21:28;0.70;99.00
2751;DHT22;1383;48.362;10.908;2024-01-07T14:23:57;0.70;99.00
2751;DHT22;1383;48.362;10.908;2024-01-07T14:26:24;0.60;98.90
2751;DHT22;1383;48.362;10.908;2024-01-07T14:28:51;0.70;98.90
2751;DHT22;1383;48.362;10.908;2024-01-07T14:31:38;0.60;98.90
2751;DHT22;1383;48.362;10.908;2024-01-07T14:34:04;0.60;98.90
2751;DHT22;1383;48.362;10.908;2024-01-07T14:36:31;0.60;98.90
2751;DHT22;1383;48.362;10.908;2024-01-07T14:38:58;0.70;98.90
2751;DHT22;1383;48.362;10.908;2024-01-07T14:41:25;0.70;99.00
2751;DHT22;1383;48.362;10.908;2024-01-07T14:43:53;0.80;98.90
2751;DHT22;1383;48.362;10.908;2024-01-07T14:46:22;0.70;99.00
2751;DHT22;1383;48.362;10.908;2024-01-07T14:48:49;0.70;98.60
2751;DHT22;1383;48.362;10.908;2024-01-07T14:51:17;0.70;98.50
2751;DHT22;1383;48.362;10.908;2024-01-07T14:53:44;0.60;98.50
2751;DHT22;1383;48.362;10.908;2024-01-07T14:56:11;0.60;98.50
2751;DHT22;1383;48.362;10.908;2024-01-07T14:58:38;0.60;98.70
2751;DHT22;1383;48.362;10.908;2024-01-07T15:01:04;0.60;98.70
2751;DHT22;1383;48.362;10.908;2024-01-07T15:03:32;0.60;98.70
2751;DHT22;1383;48.362;10.908;2024-01-07T15:05:58;0.60;98.80
2751;DHT22;1383;48.362;10.908;2024-01-07T15:08:25;0.70;98.90
2751;DHT22;1383;48.362;10.908;2024-01-07T15:10:52;0.60;98.90
2751;DHT22;1383;48.362;10.908;2024-01-07T15:13:19;0.70;98.90
2751;DHT22;1383;48.362;10.908;2024-01-07T15:15:48;0.60;98.90
2751;DHT22;1383;48.362;10.908;2024-01-07T15:18:15;0.70;98.90
2751;DHT22;1383;48.362;10.908;2024-01-07T15:20:43;0.70;98.90
2751;DHT22;1383;48.362;10.908;2024-01-07T15:23:10;0.60;98.80
2751;DHT22;1383;48.362;10.908;2024-01-07T15:25:36;0.60;98.60
2751;DHT22;1383;48.362;10.908;2024-01-07T15:28:04;0.60;98.60
2751;DHT22;1383;48.362;10.908;2024-01-07T15:30:32;0.60;98.50
2751;DHT22;1383;48.362;10.908;2024-01-07T15:32:59;0.60;98.50
2751;DHT22;1383;48.362;10.908;2024-01-07T15:35:26;0.60;98.50
2751;DHT22;1383;48.362;10.908;2024-01-07T15:37:53;0.60;98.50
2751;DHT22;1383;48.362;10.908;2024-01-07T15:40:21;0.50;98.50
2751;DHT22;1383;48.362;10.908;2024-01-07T15:42:48;0.50;98.20
2751;DHT22;1383;48.362;10.908;2024-01-07T15:45:15;0.40;98.20
2751;DHT22;1383;48.362;10.908;2024-01-07T15:47:42;0.50;98.40
2751;DHT22;1383;48.362;10.908;2024-01-07T15:50:12;0.50;98.40
2751;DHT22;1383;48.362;10.908;2024-01-07T15:52:39;0.50;98.40
2751;DHT22;1383;48.362;10.908;2024-01-07T15:55:12;0.60;98.50
2751;DHT22;1383;48.362;10.908;2024-01-07T15:57:41;0.60;98.50
2751;DHT22;1383;48.362;10.908;2024-01-07T16:00:12;0.50;98.50
2751;DHT22;1383;48.362;10.908;2024-01-07T16:02:39;0.60;98.60
2751;DHT22;1383;48.362;10.908;2024-01-07T16:05:06;0.50;98.50
2751;DHT22;1383;48.362;10.908;2024-01-07T16:07:34;0.50;98.50
2751;DHT22;1383;48.362;10.908;2024-01-07T16:10:01;0.50;98.60